Indian River Shores, Florida
Current Conditions -  °F | °C
As of 8:53 AM on Friday 28 Nov 2014 (Local Time) from KVRB Reporting Station
Clear Clear  
Wind Chill: 52°   Ceiling: Unl
Heat Index: 52°   Visibility: 10mi
Dew Point: 44°   Wind: 13mph
Humidity: 74%   Direction: 330°NNW
Pressure: 30.28"   Gusts: NA
Location:  27.7066°N, 80.3826°W
Report Text: KVRB 281353Z AUTO 33011KT 10SM CLR 11/07 A3028 RMK AO2 SLP252 T01110067
Loading
Personal Weather Stations






























Interactive Weather Map New forecast layout! Learn more

10-Day Weather Forecast

Advertisements
Track Severe Weather on mobile